sensor_id;sensor_type;location;lat;lon;timestamp;P1;durP1;ratioP1;P2;durP2;ratioP2
80307;SDS011;69616;43.522;1.348;2023-09-19T00:02:16;9.13;;;2.13;;
80307;SDS011;69616;43.522;1.348;2023-09-19T00:04:42;10.48;;;1.30;;
80307;SDS011;69616;43.522;1.348;2023-09-19T00:07:08;8.40;;;1.60;;
80307;SDS011;69616;43.522;1.348;2023-09-19T00:09:37;7.78;;;1.30;;
80307;SDS011;69616;43.522;1.348;2023-09-19T00:12:05;5.63;;;1.17;;
80307;SDS011;69616;43.522;1.348;2023-09-19T00:14:31;7.07;;;1.38;;
80307;SDS011;69616;43.522;1.348;2023-09-19T00:17:01;9.85;;;1.48;;
80307;SDS011;69616;43.522;1.348;2023-09-19T00:19:32;8.52;;;1.40;;
80307;SDS011;69616;43.522;1.348;2023-09-19T00:21:58;6.17;;;1.30;;
80307;SDS011;69616;43.522;1.348;2023-09-19T00:24:23;7.33;;;1.47;;
80307;SDS011;69616;43.522;1.348;2023-09-19T00:26:49;8.45;;;1.67;;
80307;SDS011;69616;43.522;1.348;2023-09-19T00:29:14;6.93;;;1.00;;
80307;SDS011;69616;43.522;1.348;2023-09-19T00:31:44;8.73;;;1.60;;
80307;SDS011;69616;43.522;1.348;2023-09-19T00:34:09;9.63;;;1.30;;
80307;SDS011;69616;43.522;1.348;2023-09-19T00:36:36;8.02;;;1.30;;
80307;SDS011;69616;43.522;1.348;2023-09-19T00:39:04;8.57;;;1.80;;
80307;SDS011;69616;43.522;1.348;2023-09-19T00:41:31;8.02;;;1.25;;
80307;SDS011;69616;43.522;1.348;2023-09-19T00:43:57;10.68;;;1.58;;
80307;SDS011;69616;43.522;1.348;2023-09-19T00:46:22;7.90;;;1.43;;
80307;SDS011;69616;43.522;1.348;2023-09-19T00:48:47;6.90;;;1.30;;
80307;SDS011;69616;43.522;1.348;2023-09-19T00:51:14;8.02;;;1.40;;
80307;SDS011;69616;43.522;1.348;2023-09-19T00:53:44;5.68;;;1.17;;
80307;SDS011;69616;43.522;1.348;2023-09-19T00:56:11;8.27;;;1.17;;
80307;SDS011;69616;43.522;1.348;2023-09-19T00:58:37;9.93;;;1.33;;
80307;SDS011;69616;43.522;1.348;2023-09-19T01:01:03;7.10;;;1.20;;
80307;SDS011;69616;43.522;1.348;2023-09-19T01:03:32;10.60;;;1.80;;
80307;SDS011;69616;43.522;1.348;2023-09-19T01:05:59;9.65;;;1.45;;
80307;SDS011;69616;43.522;1.348;2023-09-19T01:08:25;8.60;;;1.10;;
80307;SDS011;69616;43.522;1.348;2023-09-19T01:11:06;7.57;;;1.33;;
80307;SDS011;69616;43.522;1.348;2023-09-19T01:30:20;7.27;;;1.47;;
80307;SDS011;69616;43.522;1.348;2023-09-19T01:32:50;9.10;;;1.30;;
80307;SDS011;69616;43.522;1.348;2023-09-19T01:35:17;8.68;;;1.60;;
80307;SDS011;69616;43.522;1.348;2023-09-19T01:37:43;7.90;;;1.27;;
80307;SDS011;69616;43.522;1.348;2023-09-19T01:40:10;11.35;;;1.70;;
80307;SDS011;69616;43.522;1.348;2023-09-19T01:42:45;7.63;;;1.10;;
80307;SDS011;69616;43.522;1.348;2023-09-19T01:47:52;6.75;;;1.35;;
80307;SDS011;69616;43.522;1.348;2023-09-19T01:53:43;8.55;;;1.60;;
80307;SDS011;69616;43.522;1.348;2023-09-19T01:56:50;7.07;;;1.33;;
80307;SDS011;69616;43.522;1.348;2023-09-19T01:59:17;10.15;;;1.27;;
80307;SDS011;69616;43.522;1.348;2023-09-19T02:01:52;10.30;;;1.40;;
80307;SDS011;69616;43.522;1.348;2023-09-19T02:04:19;9.48;;;1.20;;
80307;SDS011;69616;43.522;1.348;2023-09-19T02:06:45;11.63;;;1.40;;
80307;SDS011;69616;43.522;1.348;2023-09-19T02:09:12;7.82;;;1.02;;
80307;SDS011;69616;43.522;1.348;2023-09-19T02:11:39;6.68;;;1.20;;
80307;SDS011;69616;43.522;1.348;2023-09-19T02:14:05;9.10;;;1.48;;
80307;SDS011;69616;43.522;1.348;2023-09-19T02:16:33;8.57;;;1.40;;
80307;SDS011;69616;43.522;1.348;2023-09-19T02:18:59;9.50;;;1.40;;
80307;SDS011;69616;43.522;1.348;2023-09-19T02:21:25;8.43;;;1.20;;
80307;SDS011;69616;43.522;1.348;2023-09-19T02:23:52;7.97;;;1.90;;
80307;SDS011;69616;43.522;1.348;2023-09-19T02:26:17;6.30;;;1.40;;
80307;SDS011;69616;43.522;1.348;2023-09-19T02:28:45;8.93;;;1.40;;
80307;SDS011;69616;43.522;1.348;2023-09-19T02:31:11;9.38;;;1.48;;
80307;SDS011;69616;43.522;1.348;2023-09-19T02:33:36;7.80;;;1.27;;
80307;SDS011;69616;43.522;1.348;2023-09-19T02:36:02;7.72;;;1.42;;
80307;SDS011;69616;43.522;1.348;2023-09-19T02:38:28;7.90;;;1.03;;
80307;SDS011;69616;43.522;1.348;2023-09-19T02:40:54;6.68;;;1.27;;
80307;SDS011;69616;43.522;1.348;2023-09-19T02:43:23;6.50;;;1.33;;
80307;SDS011;69616;43.522;1.348;2023-09-19T02:45:49;10.05;;;1.40;;
80307;SDS011;69616;43.522;1.348;2023-09-19T02:48:15;8.43;;;1.50;;
80307;SDS011;69616;43.522;1.348;2023-09-19T02:50:41;8.90;;;1.30;;
80307;SDS011;69616;43.522;1.348;2023-09-19T02:53:07;8.40;;;1.30;;
80307;SDS011;69616;43.522;1.348;2023-09-19T02:55:33;8.57;;;1.70;;
80307;SDS011;69616;43.522;1.348;2023-09-19T02:57:59;8.82;;;1.50;;
80307;SDS011;69616;43.522;1.348;2023-09-19T03:00:25;7.93;;;1.50;;
80307;SDS011;69616;43.522;1.348;2023-09-19T03:02:55;8.15;;;1.50;;
80307;SDS011;69616;43.522;1.348;2023-09-19T03:05:21;8.48;;;1.58;;
80307;SDS011;69616;43.522;1.348;2023-09-19T03:07:48;9.07;;;1.60;;
80307;SDS011;69616;43.522;1.348;2023-09-19T03:10:15;8.15;;;1.10;;
80307;SDS011;69616;43.522;1.348;2023-09-19T03:12:45;8.17;;;1.27;;
80307;SDS011;69616;43.522;1.348;2023-09-19T03:15:11;9.05;;;1.50;;
80307;SDS011;69616;43.522;1.348;2023-09-19T03:17:36;5.67;;;1.60;;
80307;SDS011;69616;43.522;1.348;2023-09-19T03:20:03;8.38;;;1.48;;
80307;SDS011;69616;43.522;1.348;2023-09-19T03:22:29;7.40;;;1.30;;
80307;SDS011;69616;43.522;1.348;2023-09-19T03:24:55;6.40;;;1.20;;
80307;SDS011;69616;43.522;1.348;2023-09-19T03:27:20;6.20;;;1.30;;
80307;SDS011;69616;43.522;1.348;2023-09-19T03:29:46;8.57;;;1.30;;
80307;SDS011;69616;43.522;1.348;2023-09-19T03:32:14;9.05;;;1.35;;
80307;SDS011;69616;43.522;1.348;2023-09-19T03:34:40;8.05;;;1.60;;
80307;SDS011;69616;43.522;1.348;2023-09-19T03:37:07;5.65;;;1.10;;
80307;SDS011;69616;43.522;1.348;2023-09-19T03:39:33;8.17;;;1.60;;
80307;SDS011;69616;43.522;1.348;2023-09-19T03:41:58;9.63;;;1.42;;
80307;SDS011;69616;43.522;1.348;2023-09-19T03:44:24;7.93;;;1.50;;
80307;SDS011;69616;43.522;1.348;2023-09-19T03:46:49;6.80;;;1.20;;
80307;SDS011;69616;43.522;1.348;2023-09-19T03:49:15;8.43;;;1.60;;
80307;SDS011;69616;43.522;1.348;2023-09-19T03:51:40;6.57;;;1.30;;
80307;SDS011;69616;43.522;1.348;2023-09-19T03:54:06;8.15;;;1.42;;
80307;SDS011;69616;43.522;1.348;2023-09-19T03:56:32;7.03;;;1.40;;
80307;SDS011;69616;43.522;1.348;2023-09-19T03:58:57;11.87;;;1.40;;
80307;SDS011;69616;43.522;1.348;2023-09-19T04:01:23;6.93;;;1.55;;
80307;SDS011;69616;43.522;1.348;2023-09-19T04:03:48;5.60;;;1.40;;
80307;SDS011;69616;43.522;1.348;2023-09-19T04:06:15;8.20;;;1.33;;
80307;SDS011;69616;43.522;1.348;2023-09-19T04:08:41;10.83;;;1.87;;
80307;SDS011;69616;43.522;1.348;2023-09-19T04:11:08;7.03;;;1.45;;
80307;SDS011;69616;43.522;1.348;2023-09-19T04:13:34;7.77;;;1.00;;
80307;SDS011;69616;43.522;1.348;2023-09-19T04:15:59;6.53;;;1.50;;
80307;SDS011;69616;43.522;1.348;2023-09-19T04:18:25;10.03;;;1.57;;
80307;SDS011;69616;43.522;1.348;2023-09-19T04:20:50;6.38;;;1.52;;
80307;SDS011;69616;43.522;1.348;2023-09-19T04:23:16;9.10;;;1.93;;
80307;SDS011;69616;43.522;1.348;2023-09-19T04:25:42;9.27;;;2.00;;
80307;SDS011;69616;43.522;1.348;2023-09-19T04:28:08;8.30;;;1.50;;
80307;SDS011;69616;43.522;1.348;2023-09-19T04:30:36;9.88;;;1.48;;
80307;SDS011;69616;43.522;1.348;2023-09-19T04:33:01;5.28;;;1.38;;
80307;SDS011;69616;43.522;1.348;2023-09-19T04:35:28;9.02;;;1.25;;
80307;SDS011;69616;43.522;1.348;2023-09-19T04:37:56;7.90;;;1.50;;
80307;SDS011;69616;43.522;1.348;2023-09-19T04:40:22;5.97;;;1.52;;
80307;SDS011;69616;43.522;1.348;2023-09-19T04:42:56;11.32;;;1.73;;
80307;SDS011;69616;43.522;1.348;2023-09-19T04:45:24;8.75;;;1.52;;
80307;SDS011;69616;43.522;1.348;2023-09-19T04:47:50;9.60;;;2.17;;
80307;SDS011;69616;43.522;1.348;2023-09-19T04:50:16;7.07;;;1.50;;
80307;SDS011;69616;43.522;1.348;2023-09-19T04:52:42;8.10;;;1.50;;
80307;SDS011;69616;43.522;1.348;2023-09-19T04:55:12;8.65;;;1.35;;
80307;SDS011;69616;43.522;1.348;2023-09-19T04:57:44;7.70;;;1.40;;
80307;SDS011;69616;43.522;1.348;2023-09-19T05:00:13;7.78;;;1.50;;
80307;SDS011;69616;43.522;1.348;2023-09-19T05:02:41;7.57;;;1.30;;
80307;SDS011;69616;43.522;1.348;2023-09-19T05:05:10;8.20;;;1.40;;
80307;SDS011;69616;43.522;1.348;2023-09-19T05:07:37;6.70;;;1.25;;
80307;SDS011;69616;43.522;1.348;2023-09-19T05:10:04;6.38;;;1.50;;
80307;SDS011;69616;43.522;1.348;2023-09-19T05:12:33;6.60;;;1.10;;
80307;SDS011;69616;43.522;1.348;2023-09-19T05:15:00;6.97;;;1.42;;
80307;SDS011;69616;43.522;1.348;2023-09-19T05:17:26;7.60;;;1.50;;
80307;SDS011;69616;43.522;1.348;2023-09-19T05:19:52;5.72;;;1.27;;
80307;SDS011;69616;43.522;1.348;2023-09-19T05:22:17;6.63;;;1.40;;
80307;SDS011;69616;43.522;1.348;2023-09-19T05:24:43;6.57;;;1.30;;
80307;SDS011;69616;43.522;1.348;2023-09-19T05:27:13;9.40;;;1.65;;
80307;SDS011;69616;43.522;1.348;2023-09-19T05:29:39;6.60;;;1.43;;
80307;SDS011;69616;43.522;1.348;2023-09-19T05:32:05;9.13;;;2.15;;
80307;SDS011;69616;43.522;1.348;2023-09-19T05:34:30;10.30;;;1.70;;
80307;SDS011;69616;43.522;1.348;2023-09-19T05:36:56;9.83;;;1.60;;
80307;SDS011;69616;43.522;1.348;2023-09-19T05:39:21;9.33;;;1.40;;
80307;SDS011;69616;43.522;1.348;2023-09-19T05:41:47;5.72;;;1.30;;
80307;SDS011;69616;43.522;1.348;2023-09-19T05:44:13;8.43;;;1.33;;
80307;SDS011;69616;43.522;1.348;2023-09-19T05:46:39;6.22;;;1.85;;
80307;SDS011;69616;43.522;1.348;2023-09-19T05:49:04;6.30;;;1.30;;
80307;SDS011;69616;43.522;1.348;2023-09-19T05:51:30;7.68;;;1.30;;
80307;SDS011;69616;43.522;1.348;2023-09-19T05:53:55;5.80;;;1.33;;
80307;SDS011;69616;43.522;1.348;2023-09-19T05:56:21;6.57;;;1.60;;
80307;SDS011;69616;43.522;1.348;2023-09-19T05:58:46;6.32;;;1.65;;
80307;SDS011;69616;43.522;1.348;2023-09-19T06:01:12;11.50;;;1.57;;
80307;SDS011;69616;43.522;1.348;2023-09-19T06:03:38;10.07;;;1.70;;
80307;SDS011;69616;43.522;1.348;2023-09-19T06:06:03;8.13;;;1.53;;
80307;SDS011;69616;43.522;1.348;2023-09-19T06:08:31;10.38;;;1.33;;
80307;SDS011;69616;43.522;1.348;2023-09-19T06:10:58;7.05;;;1.50;;
80307;SDS011;69616;43.522;1.348;2023-09-19T06:13:24;13.83;;;1.40;;
80307;SDS011;69616;43.522;1.348;2023-09-19T06:15:51;11.70;;;1.98;;
80307;SDS011;69616;43.522;1.348;2023-09-19T06:18:17;8.47;;;1.80;;
80307;SDS011;69616;43.522;1.348;2023-09-19T06:20:47;9.02;;;1.80;;
80307;SDS011;69616;43.522;1.348;2023-09-19T06:23:13;6.00;;;1.67;;
80307;SDS011;69616;43.522;1.348;2023-09-19T06:25:39;7.68;;;1.63;;
80307;SDS011;69616;43.522;1.348;2023-09-19T06:28:05;6.95;;;1.70;;
80307;SDS011;69616;43.522;1.348;2023-09-19T06:30:33;10.50;;;1.70;;
80307;SDS011;69616;43.522;1.348;2023-09-19T06:33:00;7.68;;;1.65;;
80307;SDS011;69616;43.522;1.348;2023-09-19T06:35:26;8.35;;;1.40;;
80307;SDS011;69616;43.522;1.348;2023-09-19T06:37:54;7.60;;;1.60;;
80307;SDS011;69616;43.522;1.348;2023-09-19T06:40:22;8.77;;;1.65;;
80307;SDS011;69616;43.522;1.348;2023-09-19T06:42:50;9.50;;;1.47;;
80307;SDS011;69616;43.522;1.348;2023-09-19T06:45:17;11.90;;;1.97;;
80307;SDS011;69616;43.522;1.348;2023-09-19T06:47:43;10.10;;;1.50;;
80307;SDS011;69616;43.522;1.348;2023-09-19T06:50:11;13.80;;;1.30;;
80307;SDS011;69616;43.522;1.348;2023-09-19T06:52:42;6.90;;;1.38;;
80307;SDS011;69616;43.522;1.348;2023-09-19T06:55:08;7.60;;;1.13;;
80307;SDS011;69616;43.522;1.348;2023-09-19T06:57:35;13.55;;;1.70;;
80307;SDS011;69616;43.522;1.348;2023-09-19T07:00:00;9.70;;;1.60;;
80307;SDS011;69616;43.522;1.348;2023-09-19T07:02:26;11.57;;;1.60;;
80307;SDS011;69616;43.522;1.348;2023-09-19T07:04:52;9.65;;;1.27;;
80307;SDS011;69616;43.522;1.348;2023-09-19T07:07:17;7.73;;;1.43;;
80307;SDS011;69616;43.522;1.348;2023-09-19T07:09:43;8.73;;;1.20;;
80307;SDS011;69616;43.522;1.348;2023-09-19T07:12:08;9.03;;;1.50;;
80307;SDS011;69616;43.522;1.348;2023-09-19T07:14:33;7.88;;;1.42;;
80307;SDS011;69616;43.522;1.348;2023-09-19T07:16:59;7.73;;;1.50;;
80307;SDS011;69616;43.522;1.348;2023-09-19T07:19:28;11.60;;;1.58;;
80307;SDS011;69616;43.522;1.348;2023-09-19T07:21:55;8.67;;;1.33;;
80307;SDS011;69616;43.522;1.348;2023-09-19T07:24:20;9.00;;;1.40;;
80307;SDS011;69616;43.522;1.348;2023-09-19T07:26:49;9.15;;;1.77;;
80307;SDS011;69616;43.522;1.348;2023-09-19T07:29:15;8.50;;;1.40;;
80307;SDS011;69616;43.522;1.348;2023-09-19T07:31:40;6.43;;;1.40;;
80307;SDS011;69616;43.522;1.348;2023-09-19T07:34:05;9.00;;;1.30;;
80307;SDS011;69616;43.522;1.348;2023-09-19T07:36:32;10.23;;;1.30;;
80307;SDS011;69616;43.522;1.348;2023-09-19T07:38:59;8.73;;;1.23;;
80307;SDS011;69616;43.522;1.348;2023-09-19T07:41:25;10.35;;;1.33;;
80307;SDS011;69616;43.522;1.348;2023-09-19T07:43:50;8.17;;;1.53;;
80307;SDS011;69616;43.522;1.348;2023-09-19T07:46:16;7.28;;;1.42;;
80307;SDS011;69616;43.522;1.348;2023-09-19T07:48:41;8.33;;;1.37;;
80307;SDS011;69616;43.522;1.348;2023-09-19T07:51:09;7.47;;;1.60;;
80307;SDS011;69616;43.522;1.348;2023-09-19T07:53:34;7.93;;;1.25;;
80307;SDS011;69616;43.522;1.348;2023-09-19T07:56:04;8.07;;;1.40;;
80307;SDS011;69616;43.522;1.348;2023-09-19T07:58:33;6.63;;;1.40;;
80307;SDS011;69616;43.522;1.348;2023-09-19T08:01:06;10.93;;;1.67;;
80307;SDS011;69616;43.522;1.348;2023-09-19T08:03:33;7.97;;;1.55;;
80307;SDS011;69616;43.522;1.348;2023-09-19T08:05:59;8.60;;;1.38;;
80307;SDS011;69616;43.522;1.348;2023-09-19T08:08:26;8.33;;;1.30;;
80307;SDS011;69616;43.522;1.348;2023-09-19T08:10:58;9.43;;;1.95;;
80307;SDS011;69616;43.522;1.348;2023-09-19T08:13:23;7.35;;;1.30;;
80307;SDS011;69616;43.522;1.348;2023-09-19T08:15:49;11.00;;;1.95;;
80307;SDS011;69616;43.522;1.348;2023-09-19T08:18:16;6.63;;;1.20;;
80307;SDS011;69616;43.522;1.348;2023-09-19T08:20:42;9.10;;;1.37;;
80307;SDS011;69616;43.522;1.348;2023-09-19T08:23:08;11.75;;;1.58;;
80307;SDS011;69616;43.522;1.348;2023-09-19T08:25:33;8.03;;;1.23;;
80307;SDS011;69616;43.522;1.348;2023-09-19T08:27:59;8.77;;;1.38;;
80307;SDS011;69616;43.522;1.348;2023-09-19T08:30:26;10.65;;;1.60;;
80307;SDS011;69616;43.522;1.348;2023-09-19T08:32:58;11.83;;;1.80;;
80307;SDS011;69616;43.522;1.348;2023-09-19T08:35:24;11.80;;;1.20;;
80307;SDS011;69616;43.522;1.348;2023-09-19T08:37:49;7.28;;;1.23;;
80307;SDS011;69616;43.522;1.348;2023-09-19T08:40:15;9.60;;;1.73;;
80307;SDS011;69616;43.522;1.348;2023-09-19T08:42:54;17.23;;;1.80;;
80307;SDS011;69616;43.522;1.348;2023-09-19T08:45:24;7.72;;;1.38;;
80307;SDS011;69616;43.522;1.348;2023-09-19T08:51:03;8.63;;;1.27;;
80307;SDS011;69616;43.522;1.348;2023-09-19T08:56:08;9.52;;;1.40;;
80307;SDS011;69616;43.522;1.348;2023-09-19T08:58:39;7.90;;;1.30;;
80307;SDS011;69616;43.522;1.348;2023-09-19T09:01:16;8.10;;;1.40;;
80307;SDS011;69616;43.522;1.348;2023-09-19T09:03:49;7.30;;;1.42;;
80307;SDS011;69616;43.522;1.348;2023-09-19T09:06:16;8.20;;;1.35;;
80307;SDS011;69616;43.522;1.348;2023-09-19T09:08:43;10.57;;;1.50;;
80307;SDS011;69616;43.522;1.348;2023-09-19T09:11:10;7.15;;;1.30;;
80307;SDS011;69616;43.522;1.348;2023-09-19T09:13:36;8.63;;;1.27;;
80307;SDS011;69616;43.522;1.348;2023-09-19T09:16:02;10.75;;;1.50;;
80307;SDS011;69616;43.522;1.348;2023-09-19T09:18:28;9.85;;;1.40;;
80307;SDS011;69616;43.522;1.348;2023-09-19T09:20:56;10.03;;;1.60;;
80307;SDS011;69616;43.522;1.348;2023-09-19T09:23:22;7.25;;;1.33;;
80307;SDS011;69616;43.522;1.348;2023-09-19T09:28:18;8.52;;;1.20;;
80307;SDS011;69616;43.522;1.348;2023-09-19T09:30:45;10.57;;;1.55;;
80307;SDS011;69616;43.522;1.348;2023-09-19T09:33:11;8.53;;;1.00;;
80307;SDS011;69616;43.522;1.348;2023-09-19T09:35:59;8.02;;;1.17;;
80307;SDS011;69616;43.522;1.348;2023-09-19T09:38:46;7.53;;;1.58;;
80307;SDS011;69616;43.522;1.348;2023-09-19T09:41:20;8.07;;;1.42;;
80307;SDS011;69616;43.522;1.348;2023-09-19T09:44:23;9.33;;;1.30;;
80307;SDS011;69616;43.522;1.348;2023-09-19T09:46:48;10.43;;;1.40;;
80307;SDS011;69616;43.522;1.348;2023-09-19T09:49:23;10.27;;;1.30;;
80307;SDS011;69616;43.522;1.348;2023-09-19T09:52:05;8.68;;;1.00;;
80307;SDS011;69616;43.522;1.348;2023-09-19T09:54:32;8.48;;;1.17;;
80307;SDS011;69616;43.522;1.348;2023-09-19T09:57:06;7.80;;;1.40;;
80307;SDS011;69616;43.522;1.348;2023-09-19T10:02:26;8.27;;;1.30;;
80307;SDS011;69616;43.522;1.348;2023-09-19T10:04:58;10.98;;;1.27;;
80307;SDS011;69616;43.522;1.348;2023-09-19T10:07:32;7.70;;;1.08;;
80307;SDS011;69616;43.522;1.348;2023-09-19T10:10:03;7.50;;;1.07;;
80307;SDS011;69616;43.522;1.348;2023-09-19T10:12:47;6.38;;;0.98;;
80307;SDS011;69616;43.522;1.348;2023-09-19T10:15:14;9.20;;;1.38;;
80307;SDS011;69616;43.522;1.348;2023-09-19T10:17:42;8.27;;;1.30;;
80307;SDS011;69616;43.522;1.348;2023-09-19T10:20:10;7.57;;;1.30;;
80307;SDS011;69616;43.522;1.348;2023-09-19T10:23:03;8.43;;;0.97;;
80307;SDS011;69616;43.522;1.348;2023-09-19T10:25:34;6.10;;;0.80;;
80307;SDS011;69616;43.522;1.348;2023-09-19T10:28:02;6.68;;;0.85;;
80307;SDS011;69616;43.522;1.348;2023-09-19T10:30:31;7.35;;;0.95;;
80307;SDS011;69616;43.522;1.348;2023-09-19T10:33:03;5.75;;;0.80;;
80307;SDS011;69616;43.522;1.348;2023-09-19T10:35:30;7.47;;;1.00;;
80307;SDS011;69616;43.522;1.348;2023-09-19T10:37:59;5.93;;;0.90;;
80307;SDS011;69616;43.522;1.348;2023-09-19T10:40:29;7.68;;;0.90;;
80307;SDS011;69616;43.522;1.348;2023-09-19T10:43:00;7.15;;;0.77;;
80307;SDS011;69616;43.522;1.348;2023-09-19T10:45:30;6.85;;;1.15;;
80307;SDS011;69616;43.522;1.348;2023-09-19T10:47:57;6.53;;;1.03;;
80307;SDS011;69616;43.522;1.348;2023-09-19T10:50:22;7.63;;;0.70;;
80307;SDS011;69616;43.522;1.348;2023-09-19T10:52:48;5.55;;;0.98;;
80307;SDS011;69616;43.522;1.348;2023-09-19T10:55:23;5.88;;;0.90;;
80307;SDS011;69616;43.522;1.348;2023-09-19T10:57:53;4.75;;;0.80;;
80307;SDS011;69616;43.522;1.348;2023-09-19T11:00:18;5.53;;;0.97;;
80307;SDS011;69616;43.522;1.348;2023-09-19T11:05:36;5.00;;;0.60;;
80307;SDS011;69616;43.522;1.348;2023-09-19T11:08:05;5.80;;;0.70;;
80307;SDS011;69616;43.522;1.348;2023-09-19T11:10:48;6.63;;;1.05;;
80307;SDS011;69616;43.522;1.348;2023-09-19T11:19:09;4.95;;;0.80;;
80307;SDS011;69616;43.522;1.348;2023-09-19T11:27:11;4.50;;;0.97;;
80307;SDS011;69616;43.522;1.348;2023-09-19T11:29:38;5.05;;;0.80;;
80307;SDS011;69616;43.522;1.348;2023-09-19T11:32:04;6.45;;;0.80;;
80307;SDS011;69616;43.522;1.348;2023-09-19T11:39:39;6.17;;;0.93;;
80307;SDS011;69616;43.522;1.348;2023-09-19T11:48:11;4.53;;;0.85;;
80307;SDS011;69616;43.522;1.348;2023-09-19T11:50:40;4.05;;;0.70;;
80307;SDS011;69616;43.522;1.348;2023-09-19T11:53:09;4.80;;;0.90;;
80307;SDS011;69616;43.522;1.348;2023-09-19T11:55:38;4.78;;;0.80;;
80307;SDS011;69616;43.522;1.348;2023-09-19T11:58:04;3.35;;;0.60;;
80307;SDS011;69616;43.522;1.348;2023-09-19T12:00:32;3.47;;;0.70;;
80307;SDS011;69616;43.522;1.348;2023-09-19T12:03:01;4.53;;;0.88;;
80307;SDS011;69616;43.522;1.348;2023-09-19T12:05:33;3.17;;;0.60;;
80307;SDS011;69616;43.522;1.348;2023-09-19T12:07:58;5.78;;;0.90;;
80307;SDS011;69616;43.522;1.348;2023-09-19T12:10:24;5.63;;;0.80;;
80307;SDS011;69616;43.522;1.348;2023-09-19T12:12:50;4.45;;;0.90;;
80307;SDS011;69616;43.522;1.348;2023-09-19T12:15:22;3.47;;;0.80;;
80307;SDS011;69616;43.522;1.348;2023-09-19T12:17:53;5.80;;;0.73;;
80307;SDS011;69616;43.522;1.348;2023-09-19T12:20:19;4.50;;;1.00;;
80307;SDS011;69616;43.522;1.348;2023-09-19T12:22:46;5.70;;;0.93;;
80307;SDS011;69616;43.522;1.348;2023-09-19T12:25:15;5.33;;;0.67;;
80307;SDS011;69616;43.522;1.348;2023-09-19T12:27:46;5.82;;;0.90;;
80307;SDS011;69616;43.522;1.348;2023-09-19T12:30:18;4.00;;;0.77;;
80307;SDS011;69616;43.522;1.348;2023-09-19T12:32:45;5.13;;;1.00;;
80307;SDS011;69616;43.522;1.348;2023-09-19T12:35:26;5.68;;;0.82;;
80307;SDS011;69616;43.522;1.348;2023-09-19T12:38:01;4.53;;;0.63;;
80307;SDS011;69616;43.522;1.348;2023-09-19T12:40:28;4.22;;;0.70;;
80307;SDS011;69616;43.522;1.348;2023-09-19T12:42:57;4.85;;;0.80;;
80307;SDS011;69616;43.522;1.348;2023-09-19T12:45:24;4.90;;;0.82;;
80307;SDS011;69616;43.522;1.348;2023-09-19T12:53:32;5.43;;;0.80;;
80307;SDS011;69616;43.522;1.348;2023-09-19T12:56:11;8.90;;;1.00;;
80307;SDS011;69616;43.522;1.348;2023-09-19T13:01:20;5.70;;;0.93;;
80307;SDS011;69616;43.522;1.348;2023-09-19T13:03:45;3.70;;;0.67;;
80307;SDS011;69616;43.522;1.348;2023-09-19T13:06:11;4.05;;;0.70;;
80307;SDS011;69616;43.522;1.348;2023-09-19T13:08:38;7.85;;;1.10;;
80307;SDS011;69616;43.522;1.348;2023-09-19T13:11:05;4.70;;;0.90;;
80307;SDS011;69616;43.522;1.348;2023-09-19T13:16:33;4.20;;;0.90;;
80307;SDS011;69616;43.522;1.348;2023-09-19T13:18:59;4.60;;;1.00;;
80307;SDS011;69616;43.522;1.348;2023-09-19T13:21:33;4.93;;;0.70;;
80307;SDS011;69616;43.522;1.348;2023-09-19T13:24:21;4.73;;;0.87;;
80307;SDS011;69616;43.522;1.348;2023-09-19T13:26:55;5.88;;;1.02;;
80307;SDS011;69616;43.522;1.348;2023-09-19T13:29:21;4.93;;;0.73;;
80307;SDS011;69616;43.522;1.348;2023-09-19T13:34:13;4.17;;;0.87;;
80307;SDS011;69616;43.522;1.348;2023-09-19T13:36:41;3.83;;;0.68;;
80307;SDS011;69616;43.522;1.348;2023-09-19T13:39:07;3.40;;;0.77;;
80307;SDS011;69616;43.522;1.348;2023-09-19T13:41:34;4.75;;;0.73;;
80307;SDS011;69616;43.522;1.348;2023-09-19T13:44:01;5.68;;;1.00;;
80307;SDS011;69616;43.522;1.348;2023-09-19T13:46:27;4.50;;;0.90;;
80307;SDS011;69616;43.522;1.348;2023-09-19T13:48:53;5.27;;;0.80;;
80307;SDS011;69616;43.522;1.348;2023-09-19T13:51:21;3.50;;;0.70;;
80307;SDS011;69616;43.522;1.348;2023-09-19T13:53:48;3.97;;;0.80;;
80307;SDS011;69616;43.522;1.348;2023-09-19T13:56:13;5.03;;;0.90;;
80307;SDS011;69616;43.522;1.348;2023-09-19T13:58:39;5.10;;;0.90;;
80307;SDS011;69616;43.522;1.348;2023-09-19T14:01:06;4.45;;;0.70;;
80307;SDS011;69616;43.522;1.348;2023-09-19T14:03:37;4.07;;;0.80;;
80307;SDS011;69616;43.522;1.348;2023-09-19T14:06:03;3.55;;;0.90;;
80307;SDS011;69616;43.522;1.348;2023-09-19T14:08:28;3.53;;;0.70;;
80307;SDS011;69616;43.522;1.348;2023-09-19T14:10:54;6.20;;;0.93;;
80307;SDS011;69616;43.522;1.348;2023-09-19T14:13:19;4.13;;;0.80;;
80307;SDS011;69616;43.522;1.348;2023-09-19T14:15:45;4.50;;;0.73;;
80307;SDS011;69616;43.522;1.348;2023-09-19T14:18:11;4.80;;;0.70;;
80307;SDS011;69616;43.522;1.348;2023-09-19T14:20:37;4.27;;;0.77;;
80307;SDS011;69616;43.522;1.348;2023-09-19T14:23:06;6.57;;;1.10;;
80307;SDS011;69616;43.522;1.348;2023-09-19T14:25:35;3.10;;;0.60;;
80307;SDS011;69616;43.522;1.348;2023-09-19T14:28:01;3.22;;;0.70;;
80307;SDS011;69616;43.522;1.348;2023-09-19T14:30:27;5.00;;;0.80;;
80307;SDS011;69616;43.522;1.348;2023-09-19T14:32:52;4.25;;;0.80;;
80307;SDS011;69616;43.522;1.348;2023-09-19T14:35:18;8.07;;;0.93;;
80307;SDS011;69616;43.522;1.348;2023-09-19T14:37:44;5.10;;;1.05;;
80307;SDS011;69616;43.522;1.348;2023-09-19T14:40:10;4.77;;;0.70;;
80307;SDS011;69616;43.522;1.348;2023-09-19T14:42:38;4.20;;;0.70;;
80307;SDS011;69616;43.522;1.348;2023-09-19T14:45:05;4.57;;;0.95;;
80307;SDS011;69616;43.522;1.348;2023-09-19T14:47:31;3.78;;;0.60;;
80307;SDS011;69616;43.522;1.348;2023-09-19T14:50:00;4.55;;;0.80;;
80307;SDS011;69616;43.522;1.348;2023-09-19T14:52:31;3.57;;;0.90;;
80307;SDS011;69616;43.522;1.348;2023-09-19T14:54:56;4.07;;;0.60;;
80307;SDS011;69616;43.522;1.348;2023-09-19T14:57:22;4.10;;;0.60;;
80307;SDS011;69616;43.522;1.348;2023-09-19T14:59:49;3.63;;;0.82;;
80307;SDS011;69616;43.522;1.348;2023-09-19T15:02:15;4.47;;;0.70;;
80307;SDS011;69616;43.522;1.348;2023-09-19T15:04:42;3.77;;;0.83;;
80307;SDS011;69616;43.522;1.348;2023-09-19T15:07:11;4.22;;;0.80;;
80307;SDS011;69616;43.522;1.348;2023-09-19T15:09:40;7.20;;;0.90;;
80307;SDS011;69616;43.522;1.348;2023-09-19T15:12:06;6.90;;;0.70;;
80307;SDS011;69616;43.522;1.348;2023-09-19T15:14:32;5.47;;;0.70;;
80307;SDS011;69616;43.522;1.348;2023-09-19T15:16:57;4.33;;;0.70;;
80307;SDS011;69616;43.522;1.348;2023-09-19T15:19:23;4.50;;;0.70;;
80307;SDS011;69616;43.522;1.348;2023-09-19T15:21:48;5.57;;;0.90;;
80307;SDS011;69616;43.522;1.348;2023-09-19T15:24:14;3.50;;;0.73;;
80307;SDS011;69616;43.522;1.348;2023-09-19T15:26:40;3.70;;;0.70;;
80307;SDS011;69616;43.522;1.348;2023-09-19T15:29:06;5.45;;;0.80;;
80307;SDS011;69616;43.522;1.348;2023-09-19T15:31:32;4.40;;;0.80;;
80307;SDS011;69616;43.522;1.348;2023-09-19T15:33:58;4.13;;;0.80;;
80307;SDS011;69616;43.522;1.348;2023-09-19T15:36:23;4.20;;;0.80;;
80307;SDS011;69616;43.522;1.348;2023-09-19T15:41:32;6.20;;;1.00;;
80307;SDS011;69616;43.522;1.348;2023-09-19T15:43:59;4.72;;;0.85;;
80307;SDS011;69616;43.522;1.348;2023-09-19T15:46:26;5.97;;;0.90;;
80307;SDS011;69616;43.522;1.348;2023-09-19T15:48:54;3.42;;;0.60;;
80307;SDS011;69616;43.522;1.348;2023-09-19T15:51:20;3.33;;;0.60;;
80307;SDS011;69616;43.522;1.348;2023-09-19T15:53:46;3.67;;;0.60;;
80307;SDS011;69616;43.522;1.348;2023-09-19T15:56:13;5.07;;;0.70;;
80307;SDS011;69616;43.522;1.348;2023-09-19T15:58:40;3.50;;;0.60;;
80307;SDS011;69616;43.522;1.348;2023-09-19T16:01:06;4.13;;;0.90;;
80307;SDS011;69616;43.522;1.348;2023-09-19T16:03:36;4.43;;;0.50;;
80307;SDS011;69616;43.522;1.348;2023-09-19T16:06:07;4.32;;;0.80;;